Time;durP1;ratioP1;P1;durP2;ratioP2;P2;SDS_P1;SDS_P2;PMS_P1;PMS_P2;Temp;Humidity;BMP_temperature;BMP_pressure;BME280_temperature;BME280_humidity;BME280_pressure;Samples;Min_cycle;Max_cycle;Signal;HPM_P1;HPM_P2
2021/11/23 00:00:39;;;;;;;;;;;2.10;99.90;;;;;;5094645;28;19946;-82
2021/11/23 00:03:06;;;;;;;;;;;2.00;99.90;;;;;;5092276;28;19928;-78
2021/11/23 00:05:34;;;;;;;;;;;2.10;99.90;;;;;;5094418;28;19959;-80
2021/11/23 00:08:01;;;;;;;;;;;2.10;99.90;;;;;;5089428;28;19992;-82
2021/11/23 00:10:27;;;;;;;;;;;2.10;99.90;;;;;;5093559;28;19925;-81
2021/11/23 00:12:54;;;;;;;;;;;2.10;99.90;;;;;;5092773;28;19931;-79
2021/11/23 00:15:21;;;;;;;;;;;2.10;99.90;;;;;;5093871;28;19924;-81
2021/11/23 00:17:48;;;;;;;;;;;2.10;99.90;;;;;;5094227;28;19963;-80
2021/11/23 00:20:14;;;;;;;;;;;2.00;99.90;;;;;;5095470;28;19952;-79
2021/11/23 00:22:42;;;;;;;;;;;2.00;99.90;;;;;;5096655;28;19932;-79
2021/11/23 00:25:09;;;;;;;;;;;4.00;99.90;;;;;;5096306;28;19924;-79
2021/11/23 00:27:36;;;;;;;;;;;2.00;99.90;;;;;;5122244;22;19912;-84
2021/11/23 00:30:03;;;;;;;;;;;2.00;99.90;;;;;;5100123;28;20038;-85
2021/11/23 00:32:30;;;;;;;;;;;2.10;99.90;;;;;;5095780;28;19924;-85
2021/11/23 00:34:57;;;;;;;;;;;2.10;99.90;;;;;;5093892;28;19990;-85
2021/11/23 00:37:23;;;;;;;;;;;2.10;99.90;;;;;;5092622;28;19935;-85
2021/11/23 00:39:52;;;;;;;;;;;2.20;99.90;;;;;;5089576;28;19931;-85
2021/11/23 00:42:18;;;;;;;;;;;2.00;99.90;;;;;;5089337;28;19932;-85
2021/11/23 00:44:45;;;;;;;;;;;2.10;99.90;;;;;;5089991;28;19964;-85
2021/11/23 00:47:12;;;;;;;;;;;2.00;99.90;;;;;;5090022;28;19928;-85
2021/11/23 00:49:39;;;;;;;;;;;2.00;99.90;;;;;;5090587;28;19925;-85
2021/11/23 00:52:06;;;;;;;;;;;2.00;99.90;;;;;;5096432;28;19932;-85
2021/11/23 00:54:32;;;;;;;;;;;2.00;99.90;;;;;;5099212;28;19924;-86
2021/11/23 00:57:00;;;;;;;;;;;2.00;99.90;;;;;;5100202;28;19936;-86
2021/11/23 00:59:27;;;;;;;;;;;1.90;99.90;;;;;;5099614;28;19932;-86
2021/11/23 01:01:54;;;;;;;;;;;2.00;99.90;;;;;;5090496;28;19928;-85
2021/11/23 01:04:20;;;;;;;;;;;2.00;99.90;;;;;;5088917;28;19924;-85
2021/11/23 01:06:49;;;;;;;;;;;2.10;99.90;;;;;;5087881;28;19925;-85
2021/11/23 01:09:16;;;;;;;;;;;2.10;99.90;;;;;;5087767;28;19924;-86
2021/11/23 01:11:43;;;;;;;;;;;2.10;99.90;;;;;;5087401;28;19925;-85
2021/11/23 01:14:13;;;;;;;;;;;2.60;99.90;;;;;;5090750;28;19947;-86
2021/11/23 01:16:44;;;;;;;;;;;2.10;99.90;;;;;;5092225;28;20015;-86
2021/11/23 01:19:11;;;;;;;;;;;2.10;99.90;;;;;;5090762;28;19928;-86
2021/11/23 01:21:38;;;;;;;;;;;2.00;99.90;;;;;;5088787;28;19955;-86
2021/11/23 01:24:05;;;;;;;;;;;2.60;99.90;;;;;;5089960;28;19998;-86
2021/11/23 01:26:32;;;;;;;;;;;2.00;99.90;;;;;;5089292;28;19999;-85
2021/11/23 01:28:58;;;;;;;;;;;2.00;99.90;;;;;;5087980;28;19982;-86
2021/11/23 01:31:27;;;;;;;;;;;2.00;99.90;;;;;;5088403;28;20014;-86
2021/11/23 01:33:53;;;;;;;;;;;2.00;99.90;;;;;;5088014;28;20394;-86
2021/11/23 01:36:20;;;;;;;;;;;2.00;99.90;;;;;;5089108;28;19925;-86
2021/11/23 01:38:47;;;;;;;;;;;2.00;99.90;;;;;;5089020;28;19924;-86
2021/11/23 01:41:13;;;;;;;;;;;2.00;99.90;;;;;;5089012;28;19932;-86
2021/11/23 01:43:40;;;;;;;;;;;2.00;99.90;;;;;;5089050;28;20045;-86
2021/11/23 01:46:07;;;;;;;;;;;2.00;99.90;;;;;;5093687;28;19952;-86
2021/11/23 01:48:35;;;;;;;;;;;2.00;99.90;;;;;;5098971;28;19935;-84
2021/11/23 01:51:03;;;;;;;;;;;2.00;99.90;;;;;;5097648;28;19924;-84
2021/11/23 01:53:30;;;;;;;;;;;2.30;99.90;;;;;;5093349;28;19931;-85
2021/11/23 01:55:57;;;;;;;;;;;2.10;99.90;;;;;;5096674;28;19931;-85
2021/11/23 01:58:24;;;;;;;;;;;2.10;99.90;;;;;;5092141;28;19924;-85
2021/11/23 02:00:51;;;;;;;;;;;2.20;99.90;;;;;;5092088;28;19959;-85
2021/11/23 02:03:18;;;;;;;;;;;2.20;99.90;;;;;;5100501;28;19971;-85
2021/11/23 02:05:47;;;;;;;;;;;2.10;99.90;;;;;;5100368;28;19913;-84
2021/11/23 02:08:14;;;;;;;;;;;2.10;99.90;;;;;;5096915;28;20011;-84
2021/11/23 02:10:41;;;;;;;;;;;2.20;99.90;;;;;;5098456;28;20016;-84
2021/11/23 02:13:08;;;;;;;;;;;2.20;99.90;;;;;;5099468;28;19931;-85
2021/11/23 02:15:35;;;;;;;;;;;2.20;99.90;;;;;;5099751;28;19925;-85
2021/11/23 02:18:12;;;;;;;;;;;2.30;99.90;;;;;;5099880;28;19928;-85
2021/11/23 02:20:40;;;;;;;;;;;2.20;99.90;;;;;;5099712;28;19936;-85
2021/11/23 02:23:07;;;;;;;;;;;2.30;99.90;;;;;;5100148;28;19933;-84
2021/11/23 02:25:34;;;;;;;;;;;2.30;99.90;;;;;;5099376;28;19908;-84
2021/11/23 02:28:01;;;;;;;;;;;2.30;99.90;;;;;;5098352;28;19931;-85
2021/11/23 02:30:28;;;;;;;;;;;2.30;99.90;;;;;;5097107;28;19951;-85
2021/11/23 02:32:54;;;;;;;;;;;2.40;99.90;;;;;;5098243;28;19940;-85
2021/11/23 02:35:22;;;;;;;;;;;2.40;99.90;;;;;;5098354;28;19912;-85
2021/11/23 02:37:51;;;;;;;;;;;2.40;99.90;;;;;;5098378;28;20286;-84
2021/11/23 02:40:18;;;;;;;;;;;2.30;99.90;;;;;;5099299;28;19920;-85
2021/11/23 02:42:46;;;;;;;;;;;2.20;99.90;;;;;;5095969;28;19924;-85
2021/11/23 02:45:14;;;;;;;;;;;2.10;99.90;;;;;;5089804;28;19928;-86
2021/11/23 02:47:40;;;;;;;;;;;2.00;99.90;;;;;;5089179;28;19925;-85
2021/11/23 02:50:09;;;;;;;;;;;2.10;99.90;;;;;;5088841;28;19924;-86
2021/11/23 02:52:35;;;;;;;;;;;2.10;99.90;;;;;;5089208;28;19955;-86
2021/11/23 02:55:05;;;;;;;;;;;2.10;99.90;;;;;;5088865;28;20023;-85
2021/11/23 02:57:33;;;;;;;;;;;2.20;99.90;;;;;;5088314;28;19925;-86
2021/11/23 03:00:04;;;;;;;;;;;2.30;99.90;;;;;;5087854;28;19931;-86
2021/11/23 03:02:30;;;;;;;;;;;2.30;99.90;;;;;;5088759;28;19924;-86
2021/11/23 03:04:58;;;;;;;;;;;2.20;99.90;;;;;;5088056;28;19947;-85
2021/11/23 03:07:25;;;;;;;;;;;2.20;99.90;;;;;;5087435;28;20018;-85
2021/11/23 03:09:52;;;;;;;;;;;2.10;99.90;;;;;;5088739;28;19964;-85
2021/11/23 03:12:21;;;;;;;;;;;2.20;99.90;;;;;;5088043;28;19934;-86
2021/11/23 03:14:48;;;;;;;;;;;2.20;99.90;;;;;;5088706;28;19988;-85
2021/11/23 03:17:16;;;;;;;;;;;2.30;99.90;;;;;;5088097;28;19964;-86
2021/11/23 03:19:43;;;;;;;;;;;2.30;99.90;;;;;;5087335;28;20459;-86
2021/11/23 03:22:10;;;;;;;;;;;2.40;99.90;;;;;;5094586;28;19932;-84
2021/11/23 03:24:37;;;;;;;;;;;2.40;99.90;;;;;;5096784;28;19924;-84
2021/11/23 03:27:05;;;;;;;;;;;2.40;99.90;;;;;;5092378;28;19931;-85
2021/11/23 03:29:33;;;;;;;;;;;2.50;99.90;;;;;;5090050;28;19946;-86
2021/11/23 03:32:01;;;;;;;;;;;2.50;99.90;;;;;;5089394;28;19925;-85
2021/11/23 03:34:31;;;;;;;;;;;2.70;99.90;;;;;;5089173;28;19925;-85
2021/11/23 03:36:58;;;;;;;;;;;2.70;99.90;;;;;;5089921;28;20018;-85
2021/11/23 03:39:25;;;;;;;;;;;2.80;99.90;;;;;;5090250;28;19924;-85
2021/11/23 03:41:51;;;;;;;;;;;2.80;99.90;;;;;;5094276;28;19936;-84
2021/11/23 03:44:18;;;;;;;;;;;2.70;99.90;;;;;;5098157;28;19909;-83
2021/11/23 03:46:46;;;;;;;;;;;2.70;99.90;;;;;;5098485;28;19924;-83
2021/11/23 03:49:13;;;;;;;;;;;1.90;99.90;;;;;;5096568;28;19929;-85
2021/11/23 03:51:39;;;;;;;;;;;2.70;99.90;;;;;;5091584;28;19967;-85
2021/11/23 03:54:06;;;;;;;;;;;2.70;99.90;;;;;;5088447;28;19962;-85
2021/11/23 03:56:33;;;;;;;;;;;2.70;99.90;;;;;;5086493;28;19967;-85
2021/11/23 03:58:59;;;;;;;;;;;2.70;99.90;;;;;;5087035;28;19924;-85
2021/11/23 04:01:29;;;;;;;;;;;2.90;99.90;;;;;;5087192;28;19984;-85
2021/11/23 04:03:57;;;;;;;;;;;2.90;99.90;;;;;;5087439;28;20305;-85
2021/11/23 04:06:23;;;;;;;;;;;3.00;99.90;;;;;;5087429;28;19928;-85
2021/11/23 04:08:50;;;;;;;;;;;2.90;99.90;;;;;;5086107;28;19925;-84
2021/11/23 04:11:17;;;;;;;;;;;2.90;99.90;;;;;;5086669;28;19947;-85
2021/11/23 04:13:44;;;;;;;;;;;2.90;99.90;;;;;;5085928;28;19924;-85
2021/11/23 04:16:11;;;;;;;;;;;2.90;99.90;;;;;;5086984;28;19924;-85
2021/11/23 04:18:38;;;;;;;;;;;3.00;99.90;;;;;;5092296;28;19912;-83
2021/11/23 04:21:08;;;;;;;;;;;3.00;99.90;;;;;;5098640;28;19913;-82
2021/11/23 04:23:45;;;;;;;;;;;3.00;99.90;;;;;;5098591;28;19913;-83
2021/11/23 04:26:11;;;;;;;;;;;3.00;99.90;;;;;;5094599;28;19935;-86
2021/11/23 04:28:38;;;;;;;;;;;3.10;99.90;;;;;;5088620;28;19932;-86
2021/11/23 04:31:05;;;;;;;;;;;3.00;99.90;;;;;;5094906;28;19932;-86
2021/11/23 04:33:32;;;;;;;;;;;2.90;99.90;;;;;;5097738;28;19931;-86
2021/11/23 04:35:58;;;;;;;;;;;3.00;99.90;;;;;;5095963;28;19955;-85
2021/11/23 04:38:26;;;;;;;;;;;3.00;99.90;;;;;;5080381;28;19978;-85
2021/11/23 04:40:53;;;;;;;;;;;3.10;99.90;;;;;;5082611;28;19928;-85
2021/11/23 04:43:20;;;;;;;;;;;3.10;99.90;;;;;;5082523;28;19924;-85
2021/11/23 04:45:46;;;;;;;;;;;3.20;99.90;;;;;;5084920;28;19983;-85
2021/11/23 04:48:13;;;;;;;;;;;3.10;99.90;;;;;;5091614;28;19924;-85
2021/11/23 04:50:40;;;;;;;;;;;3.20;99.90;;;;;;5098159;28;19909;-85
2021/11/23 04:53:08;;;;;;;;;;;3.20;99.90;;;;;;5099720;28;19952;-84
2021/11/23 04:55:36;;;;;;;;;;;3.20;99.90;;;;;;5099445;28;19925;-85
2021/11/23 04:58:03;;;;;;;;;;;3.30;99.90;;;;;;5096897;28;19936;-85
2021/11/23 05:00:30;;;;;;;;;;;3.30;99.90;;;;;;5096826;28;19924;-85
2021/11/23 05:02:57;;;;;;;;;;;3.30;99.90;;;;;;5098628;28;20018;-85
2021/11/23 05:05:25;;;;;;;;;;;3.30;99.90;;;;;;5098206;28;19921;-85
2021/11/23 05:07:51;;;;;;;;;;;3.30;99.90;;;;;;5097940;28;19960;-84
2021/11/23 05:10:18;;;;;;;;;;;3.40;99.90;;;;;;5092288;28;19925;-85
2021/11/23 05:12:46;;;;;;;;;;;3.40;99.90;;;;;;5090404;28;19928;-85
2021/11/23 05:15:13;;;;;;;;;;;3.50;99.90;;;;;;5091221;28;19967;-85
2021/11/23 05:17:40;;;;;;;;;;;3.60;99.90;;;;;;5090412;28;19924;-85
2021/11/23 05:20:08;;;;;;;;;;;3.60;99.90;;;;;;5090075;28;20239;-85
2021/11/23 05:22:35;;;;;;;;;;;3.70;99.90;;;;;;5090986;28;19925;-86
2021/11/23 05:25:02;;;;;;;;;;;3.50;99.90;;;;;;5089608;28;19924;-85
2021/11/23 05:27:29;;;;;;;;;;;3.80;99.90;;;;;;5090485;28;20316;-86
2021/11/23 05:29:59;;;;;;;;;;;3.80;99.90;;;;;;5092441;28;19947;-84
2021/11/23 05:32:25;;;;;;;;;;;3.70;99.90;;;;;;5094109;28;19924;-84
2021/11/23 05:34:52;;;;;;;;;;;3.90;99.90;;;;;;5092938;28;19925;-85
2021/11/23 05:37:19;;;;;;;;;;;3.80;99.90;;;;;;5097688;28;19968;-85
2021/11/23 05:39:45;;;;;;;;;;;3.80;99.90;;;;;;5089826;28;19970;-85
2021/11/23 05:42:12;;;;;;;;;;;3.90;99.90;;;;;;5088629;28;19988;-85
2021/11/23 05:44:39;;;;;;;;;;;3.90;99.90;;;;;;5094328;28;19924;-86
2021/11/23 05:47:08;;;;;;;;;;;3.90;99.90;;;;;;5091762;28;20328;-86
2021/11/23 05:49:34;;;;;;;;;;;4.00;99.90;;;;;;5089389;28;19966;-86
2021/11/23 05:52:01;;;;;;;;;;;4.00;99.90;;;;;;5088097;28;19973;-85
2021/11/23 05:54:28;;;;;;;;;;;4.10;99.90;;;;;;5087759;28;19924;-85
2021/11/23 05:56:54;;;;;;;;;;;4.00;99.90;;;;;;5086889;28;19954;-85
2021/11/23 05:59:21;;;;;;;;;;;4.80;99.90;;;;;;5087868;28;19924;-85
2021/11/23 06:01:48;;;;;;;;;;;4.10;99.90;;;;;;5086448;28;19925;-85
2021/11/23 06:04:16;;;;;;;;;;;4.10;99.90;;;;;;5087499;28;19931;-85
2021/11/23 06:06:43;;;;;;;;;;;4.20;99.90;;;;;;5089059;28;19950;-86
2021/11/23 06:09:10;;;;;;;;;;;4.20;99.90;;;;;;5088652;28;19933;-84
2021/11/23 06:11:36;;;;;;;;;;;4.40;99.90;;;;;;5088180;28;20020;-84
2021/11/23 06:14:04;;;;;;;;;;;4.30;99.90;;;;;;5097231;28;19924;-84
2021/11/23 06:16:32;;;;;;;;;;;4.40;99.90;;;;;;5098564;28;19912;-84
2021/11/23 06:18:59;;;;;;;;;;;4.40;99.90;;;;;;5093662;28;19954;-84
2021/11/23 06:21:27;;;;;;;;;;;4.60;99.90;;;;;;5096590;28;20023;-84
2021/11/23 06:23:54;;;;;;;;;;;;;;;;;;5096770;28;19936;-84
2021/11/23 06:26:21;;;;;;;;;;;4.50;99.90;;;;;;5113722;22;20002;-82
2021/11/23 06:28:49;;;;;;;;;;;4.50;99.90;;;;;;5042304;28;19965;-82
2021/11/23 06:31:16;;;;;;;;;;;4.60;99.90;;;;;;5040771;28;19925;-82
2021/11/23 06:33:42;;;;;;;;;;;4.60;99.90;;;;;;5041092;28;19935;-80
2021/11/23 06:36:09;;;;;;;;;;;4.60;99.90;;;;;;5040821;28;19926;-82
2021/11/23 06:38:37;;;;;;;;;;;4.60;99.90;;;;;;5048522;28;19956;-78
2021/11/23 06:41:04;;;;;;;;;;;4.60;99.90;;;;;;5053578;28;19932;-81
2021/11/23 06:43:31;;;;;;;;;;;4.70;99.90;;;;;;5051621;28;19993;-80
2021/11/23 06:45:57;;;;;;;;;;;4.40;99.90;;;;;;5052176;28;19932;-82
2021/11/23 06:48:24;;;;;;;;;;;4.70;99.90;;;;;;5052939;28;19925;-82
2021/11/23 06:50:53;;;;;;;;;;;4.70;99.90;;;;;;5057353;28;19912;-82
2021/11/23 06:53:20;;;;;;;;;;;4.70;99.90;;;;;;5052521;28;19948;-81
2021/11/23 06:55:48;;;;;;;;;;;4.70;99.90;;;;;;5052808;28;19925;-81
2021/11/23 06:58:17;;;;;;;;;;;4.70;99.90;;;;;;5047526;28;19948;-83
2021/11/23 07:00:44;;;;;;;;;;;4.80;99.90;;;;;;5047700;28;19929;-81
2021/11/23 07:03:11;;;;;;;;;;;4.70;99.90;;;;;;5051373;28;19984;-83
2021/11/23 07:05:37;;;;;;;;;;;4.70;99.90;;;;;;5054895;28;19913;-83
2021/11/23 07:08:07;;;;;;;;;;;4.70;99.90;;;;;;5055474;28;19925;-83
2021/11/23 07:10:34;;;;;;;;;;;4.70;99.90;;;;;;5052982;28;19932;-82
2021/11/23 07:13:03;;;;;;;;;;;4.80;99.90;;;;;;5051249;28;20398;-83
2021/11/23 07:15:29;;;;;;;;;;;4.80;99.90;;;;;;5047255;28;20011;-83
2021/11/23 07:17:56;;;;;;;;;;;4.80;99.90;;;;;;5044245;28;19940;-80
2021/11/23 07:20:23;;;;;;;;;;;4.80;99.90;;;;;;5040766;28;19929;-82
2021/11/23 07:22:49;;;;;;;;;;;4.80;99.90;;;;;;5041768;28;19925;-80
2021/11/23 07:25:16;;;;;;;;;;;4.80;99.90;;;;;;5042887;28;20016;-80
2021/11/23 07:27:43;;;;;;;;;;;4.90;99.90;;;;;;5039635;28;19983;-83
2021/11/23 07:30:12;;;;;;;;;;;4.90;99.90;;;;;;5041980;28;20009;-82
2021/11/23 07:32:39;;;;;;;;;;;5.00;99.90;;;;;;5041292;28;19925;-83
2021/11/23 07:35:06;;;;;;;;;;;5.00;99.90;;;;;;5040772;28;19929;-83
2021/11/23 07:37:36;;;;;;;;;;;5.00;99.90;;;;;;5039112;28;19968;-81
2021/11/23 07:40:04;;;;;;;;;;;5.00;99.90;;;;;;5039907;28;20035;-81
2021/11/23 07:42:31;;;;;;;;;;;5.10;99.90;;;;;;5039913;28;19925;-83
2021/11/23 07:44:57;;;;;;;;;;;5.10;99.90;;;;;;5040907;28;20353;-83
2021/11/23 07:47:25;;;;;;;;;;;5.10;99.90;;;;;;5040287;28;20431;-82
2021/11/23 07:49:52;;;;;;;;;;;5.00;99.90;;;;;;5042129;28;19957;-83
2021/11/23 07:52:19;;;;;;;;;;;5.10;99.90;;;;;;5037969;28;19925;-82
2021/11/23 07:54:45;;;;;;;;;;;5.10;99.90;;;;;;5038908;28;20012;-82
2021/11/23 07:57:12;;;;;;;;;;;5.20;99.90;;;;;;5039359;28;19975;-82
2021/11/23 07:59:39;;;;;;;;;;;5.10;99.90;;;;;;5039600;28;19971;-82
2021/11/23 08:02:05;;;;;;;;;;;5.20;99.90;;;;;;5040494;28;19964;-81
2021/11/23 08:04:33;;;;;;;;;;;5.10;99.90;;;;;;5045501;28;19964;-82
2021/11/23 08:07:00;;;;;;;;;;;5.30;99.90;;;;;;5042307;28;19925;-82
2021/11/23 08:09:27;;;;;;;;;;;5.50;99.90;;;;;;5045916;28;19924;-82
2021/11/23 08:11:54;;;;;;;;;;;4.70;99.90;;;;;;5045171;28;19948;-82
2021/11/23 08:14:23;;;;;;;;;;;5.20;99.90;;;;;;5042783;28;20032;-82
2021/11/23 08:16:49;;;;;;;;;;;5.20;99.90;;;;;;5043645;28;19937;-82
2021/11/23 08:19:16;;;;;;;;;;;5.30;99.90;;;;;;5042726;28;19925;-82
2021/11/23 08:21:44;;;;;;;;;;;5.30;99.90;;;;;;5052282;28;19913;-81
2021/11/23 08:24:12;;;;;;;;;;;5.30;99.90;;;;;;5050279;28;19932;-80
2021/11/23 08:26:39;;;;;;;;;;;5.30;99.90;;;;;;5055808;28;20016;-79
2021/11/23 08:29:06;;;;;;;;;;;5.30;99.90;;;;;;5051196;28;19956;-79
2021/11/23 08:31:34;;;;;;;;;;;5.30;99.90;;;;;;5054629;28;19960;-79
2021/11/23 08:34:04;;;;;;;;;;;5.30;99.90;;;;;;5052824;28;19925;-79
2021/11/23 08:36:31;;;;;;;;;;;5.40;99.90;;;;;;5053201;28;19925;-80
2021/11/23 08:38:59;;;;;;;;;;;5.40;99.90;;;;;;5053660;28;19948;-80
2021/11/23 08:41:26;;;;;;;;;;;5.40;99.90;;;;;;5056692;28;20276;-80
2021/11/23 08:43:52;;;;;;;;;;;5.50;99.90;;;;;;5056722;28;19929;-80
2021/11/23 08:46:19;;;;;;;;;;;5.50;99.90;;;;;;5055349;28;20303;-79
2021/11/23 08:48:46;;;;;;;;;;;5.50;99.90;;;;;;5053263;28;19926;-79
2021/11/23 08:51:15;;;;;;;;;;;5.50;99.90;;;;;;5054389;28;19961;-79
2021/11/23 08:53:41;;;;;;;;;;;5.60;99.90;;;;;;5051411;28;19933;-82
2021/11/23 08:56:09;;;;;;;;;;;5.60;99.90;;;;;;5055368;28;19932;-80
2021/11/23 08:58:37;;;;;;;;;;;5.60;99.90;;;;;;5052615;28;19925;-79
2021/11/23 09:01:04;;;;;;;;;;;5.70;99.90;;;;;;5049888;28;19929;-82
2021/11/23 09:03:31;;;;;;;;;;;5.60;99.90;;;;;;5049459;28;20021;-81
2021/11/23 09:05:58;;;;;;;;;;;5.70;99.90;;;;;;5045171;28;19925;-82
2021/11/23 09:08:25;;;;;;;;;;;5.70;99.90;;;;;;5044597;28;20019;-81
2021/11/23 09:10:51;;;;;;;;;;;5.70;99.90;;;;;;5052723;28;19936;-79
2021/11/23 09:13:21;;;;;;;;;;;5.70;99.90;;;;;;5058661;28;19913;-81
2021/11/23 09:15:47;;;;;;;;;;;5.70;99.90;;;;;;5061101;28;19923;-81
2021/11/23 09:18:14;;;;;;;;;;;5.80;99.90;;;;;;5056183;28;19932;-81
2021/11/23 09:20:41;;;;;;;;;;;5.80;99.90;;;;;;5046170;28;20031;-82
2021/11/23 09:23:09;;;;;;;;;;;5.80;99.90;;;;;;5059875;28;19931;-82
2021/11/23 09:25:36;;;;;;;;;;;5.80;99.90;;;;;;5059939;28;19925;-81
2021/11/23 09:28:03;;;;;;;;;;;5.90;99.90;;;;;;5047438;28;19925;-81
2021/11/23 09:30:31;;;;;;;;;;;5.90;99.90;;;;;;5048186;28;19925;-81
2021/11/23 09:32:58;;;;;;;;;;;5.90;99.90;;;;;;5042850;28;19925;-82
2021/11/23 09:35:25;;;;;;;;;;;5.90;99.90;;;;;;5042863;28;20326;-83
2021/11/23 09:37:52;;;;;;;;;;;6.00;99.90;;;;;;5041830;28;19925;-80
2021/11/23 09:40:19;;;;;;;;;;;6.00;99.90;;;;;;5052730;28;19959;-80
2021/11/23 09:42:47;;;;;;;;;;;5.90;99.90;;;;;;5057285;28;19960;-79
2021/11/23 09:45:13;;;;;;;;;;;6.10;99.90;;;;;;5049833;28;19925;-82
2021/11/23 09:47:42;;;;;;;;;;;6.00;99.90;;;;;;5046481;28;19952;-81
2021/11/23 09:50:10;;;;;;;;;;;6.10;99.90;;;;;;5046277;28;19973;-82
2021/11/23 09:52:37;;;;;;;;;;;6.10;99.90;;;;;;5044630;28;19959;-82
2021/11/23 09:55:05;;;;;;;;;;;6.10;99.90;;;;;;5044200;28;19925;-82
2021/11/23 09:57:31;;;;;;;;;;;6.10;99.90;;;;;;5043143;28;19947;-81
2021/11/23 09:59:58;;;;;;;;;;;6.10;99.90;;;;;;5042142;28;20012;-83
2021/11/23 10:02:25;;;;;;;;;;;6.20;99.90;;;;;;5041529;28;19936;-82
2021/11/23 10:05:01;;;;;;;;;;;6.20;99.90;;;;;;5041186;28;19925;-82
2021/11/23 10:07:35;;;;;;;;;;;6.20;99.90;;;;;;5041290;28;19929;-83
2021/11/23 10:10:10;;;;;;;;;;;6.20;99.90;;;;;;5040766;28;19925;-82
2021/11/23 10:12:37;;;;;;;;;;;6.20;99.90;;;;;;5041176;28;19925;-83
2021/11/23 10:15:11;;;;;;;;;;;6.20;99.90;;;;;;5041186;28;20019;-83
2021/11/23 10:17:38;;;;;;;;;;;6.20;99.90;;;;;;5046598;28;19925;-82
2021/11/23 10:20:23;;;;;;;;;;;6.20;99.90;;;;;;5049232;28;19936;-81
2021/11/23 10:22:50;;;;;;;;;;;6.20;99.90;;;;;;5052310;28;19948;-81
2021/11/23 10:25:16;;;;;;;;;;;6.20;99.90;;;;;;5050140;28;19925;-82
2021/11/23 10:27:44;;;;;;;;;;;6.20;99.90;;;;;;5041120;28;19971;-83
2021/11/23 10:30:11;;;;;;;;;;;6.30;99.90;;;;;;5040913;28;19929;-84
2021/11/23 10:32:42;;;;;;;;;;;6.20;99.90;;;;;;5040512;28;19925;-81
2021/11/23 10:35:14;;;;;;;;;;;6.20;99.90;;;;;;5039788;28;19984;-80
2021/11/23 10:37:41;;;;;;;;;;;6.20;99.90;;;;;;5038887;28;19925;-83
2021/11/23 10:40:16;;;;;;;;;;;6.20;99.90;;;;;;5038447;28;19953;-82
2021/11/23 10:42:45;;;;;;;;;;;6.30;99.90;;;;;;5040281;28;20035;-81
2021/11/23 10:45:14;;;;;;;;;;;6.20;99.90;;;;;;5038957;28;20114;-82
2021/11/23 10:47:42;;;;;;;;;;;6.30;99.90;;;;;;5039515;28;19967;-82
2021/11/23 10:50:10;;;;;;;;;;;6.60;99.90;;;;;;5039130;28;20039;-81
2021/11/23 10:52:39;;;;;;;;;;;6.30;99.90;;;;;;5039140;28;19951;-83
2021/11/23 10:55:07;;;;;;;;;;;6.30;99.90;;;;;;5039939;28;19926;-82
2021/11/23 10:57:39;;;;;;;;;;;6.40;99.90;;;;;;5039819;28;19932;-80
2021/11/23 11:00:06;;;;;;;;;;;6.40;99.90;;;;;;5041204;28;19929;-80
2021/11/23 11:02:33;;;;;;;;;;;6.40;99.90;;;;;;5039604;28;20391;-82
2021/11/23 11:05:00;;;;;;;;;;;6.40;99.90;;;;;;5039882;28;19925;-80
2021/11/23 11:07:28;;;;;;;;;;;6.50;99.90;;;;;;5039416;28;20474;-80
2021/11/23 11:09:57;;;;;;;;;;;6.50;99.90;;;;;;5038311;28;20020;-81
2021/11/23 11:12:24;;;;;;;;;;;6.50;99.90;;;;;;5039110;28;20019;-82
2021/11/23 11:14:51;;;;;;;;;;;6.60;99.90;;;;;;5040240;28;19940;-79
2021/11/23 11:17:18;;;;;;;;;;;6.60;99.90;;;;;;5051976;28;19933;-79
2021/11/23 11:19:49;;;;;;;;;;;6.60;99.90;;;;;;5052661;28;19925;-79
2021/11/23 11:22:16;;;;;;;;;;;6.70;99.90;;;;;;5044903;28;19936;-81
2021/11/23 11:24:55;;;;;;;;;;;6.70;99.90;;;;;;5041092;28;19984;-80
2021/11/23 11:27:41;;;;;;;;;;;6.70;99.90;;;;;;5038193;28;19957;-82
2021/11/23 11:30:18;;;;;;;;;;;6.70;99.90;;;;;;5039988;28;19935;-80
2021/11/23 11:32:46;;;;;;;;;;;6.70;99.90;;;;;;5040614;28;19972;-81
2021/11/23 11:35:24;;;;;;;;;;;7.90;99.90;;;;;;5050396;28;20005;-82
2021/11/23 11:37:51;;;;;;;;;;;6.80;99.90;;;;;;5050448;28;19936;-82
2021/11/23 11:40:24;;;;;;;;;;;6.80;99.90;;;;;;5052583;28;19952;-80
2021/11/23 11:43:09;;;;;;;;;;;6.90;99.90;;;;;;5050410;28;19963;-81
2021/11/23 11:45:48;;;;;;;;;;;6.90;99.90;;;;;;5040845;28;19940;-80
2021/11/23 11:48:41;;;;;;;;;;;6.80;99.90;;;;;;5047957;28;19925;-82
2021/11/23 11:51:10;;;;;;;;;;;7.00;99.90;;;;;;4998017;28;19971;-81
2021/11/23 11:53:40;;;;;;;;;;;6.50;99.90;;;;;;5042782;28;19975;-81
2021/11/23 11:56:07;;;;;;;;;;;6.90;99.90;;;;;;5040812;28;19925;-81
2021/11/23 11:58:44;;;;;;;;;;;6.90;99.90;;;;;;5041791;28;20292;-82
2021/11/23 12:01:23;;;;;;;;;;;7.00;99.90;;;;;;5044255;28;19964;-82
2021/11/23 12:04:06;;;;;;;;;;;6.90;99.90;;;;;;5044890;28;19925;-81
2021/11/23 12:06:52;;;;;;;;;;;7.00;99.90;;;;;;5043865;28;19925;-82
2021/11/23 12:09:25;;;;;;;;;;;6.90;99.90;;;;;;5044835;28;19925;-82
2021/11/23 12:11:52;;;;;;;;;;;6.90;99.90;;;;;;5044505;28;19925;-81
2021/11/23 12:14:20;;;;;;;;;;;7.00;99.90;;;;;;5043533;28;19925;-82
2021/11/23 12:16:52;;;;;;;;;;;7.00;99.90;;;;;;5044453;28;20083;-82
2021/11/23 12:19:27;;;;;;;;;;;7.10;99.90;;;;;;5043463;28;19971;-82
2021/11/23 12:21:55;;;;;;;;;;;7.00;99.90;;;;;;5044203;28;19969;-81
2021/11/23 12:24:26;;;;;;;;;;;7.00;99.90;;;;;;5044286;28;19925;-82
2021/11/23 12:26:54;;;;;;;;;;;7.10;99.90;;;;;;5083531;22;20238;-84
2021/11/23 12:29:26;;;;;;;;;;;7.20;99.90;;;;;;5093009;28;19971;-84
2021/11/23 12:31:55;;;;;;;;;;;7.20;99.90;;;;;;5091306;28;20031;-84
2021/11/23 12:34:22;;;;;;;;;;;7.20;99.90;;;;;;5097218;28;19979;-84
2021/11/23 12:36:50;;;;;;;;;;;7.20;99.90;;;;;;5094826;28;19959;-84
2021/11/23 12:39:18;;;;;;;;;;;7.20;99.90;;;;;;5085129;28;19924;-84
2021/11/23 12:41:46;;;;;;;;;;;7.20;99.90;;;;;;5086359;28;20039;-84
2021/11/23 12:44:16;;;;;;;;;;;7.80;99.90;;;;;;5087868;28;19959;-85
2021/11/23 12:46:50;;;;;;;;;;;7.30;99.90;;;;;;5098661;28;19937;-84
2021/11/23 12:49:18;;;;;;;;;;;7.30;99.90;;;;;;5095195;28;19932;-86
2021/11/23 12:51:53;;;;;;;;;;;7.30;99.90;;;;;;5097171;28;19924;-85
2021/11/23 12:54:23;;;;;;;;;;;7.30;99.90;;;;;;5098372;28;19940;-85
2021/11/23 12:56:51;;;;;;;;;;;7.30;99.90;;;;;;5098365;28;20372;-85
2021/11/23 12:59:27;;;;;;;;;;;7.30;99.90;;;;;;5093465;28;19924;-85
2021/11/23 13:01:53;;;;;;;;;;;7.40;99.90;;;;;;5087530;28;19971;-85
2021/11/23 13:04:36;;;;;;;;;;;7.30;99.90;;;;;;5087556;28;19978;-85
2021/11/23 13:07:07;;;;;;;;;;;7.20;99.90;;;;;;5089463;28;19968;-84
2021/11/23 13:09:47;;;;;;;;;;;7.20;99.90;;;;;;5098295;28;19935;-84
2021/11/23 13:12:13;;;;;;;;;;;7.20;99.90;;;;;;5091165;28;19944;-85
2021/11/23 13:14:50;;;;;;;;;;;7.20;99.90;;;;;;5087720;28;20007;-84
2021/11/23 13:17:17;;;;;;;;;;;7.20;99.90;;;;;;5087287;28;19932;-85
2021/11/23 13:19:52;;;;;;;;;;;7.20;99.90;;;;;;5088843;28;19912;-85
2021/11/23 13:22:22;;;;;;;;;;;7.10;99.90;;;;;;5093246;28;19931;-86
2021/11/23 13:24:49;;;;;;;;;;;6.80;99.90;;;;;;5097361;28;19925;-84
2021/11/23 13:27:16;;;;;;;;;;;7.10;99.90;;;;;;5097372;28;19932;-85
2021/11/23 13:29:45;;;;;;;;;;;7.10;99.90;;;;;;5098397;28;20022;-85
2021/11/23 13:32:13;;;;;;;;;;;7.10;99.90;;;;;;5099379;28;19996;-84
2021/11/23 13:34:39;;;;;;;;;;;7.10;99.90;;;;;;5091493;28;19925;-84
2021/11/23 13:37:07;;;;;;;;;;;7.20;99.90;;;;;;5088527;28;19975;-85
2021/11/23 13:39:36;;;;;;;;;;;7.20;99.90;;;;;;5086203;28;19925;-84
2021/11/23 13:42:03;;;;;;;;;;;7.10;99.90;;;;;;5088648;28;19972;-85
2021/11/23 13:44:31;;;;;;;;;;;7.10;99.90;;;;;;5090219;28;19967;-85
2021/11/23 13:46:59;;;;;;;;;;;7.20;99.90;;;;;;5090215;28;19928;-86
2021/11/23 13:49:26;;;;;;;;;;;7.10;99.90;;;;;;5088657;28;19978;-85
2021/11/23 13:52:09;;;;;;;;;;;7.20;99.90;;;;;;5090494;28;19956;-87
2021/11/23 13:54:40;;;;;;;;;;;7.10;99.90;;;;;;5090324;28;19924;-87
2021/11/23 13:57:08;;;;;;;;;;;7.20;99.90;;;;;;5089628;28;19932;-85
2021/11/23 13:59:34;;;;;;;;;;;7.20;99.90;;;;;;5093624;28;19925;-85
2021/11/23 14:02:02;;;;;;;;;;;7.20;99.90;;;;;;5096098;28;19912;-87
2021/11/23 14:04:30;;;;;;;;;;;7.20;99.90;;;;;;5095241;28;19928;-85
2021/11/23 14:07:00;;;;;;;;;;;7.10;99.90;;;;;;5093662;28;19925;-87
2021/11/23 14:09:29;;;;;;;;;;;7.10;99.90;;;;;;5091759;28;19971;-85
2021/11/23 14:11:56;;;;;;;;;;;7.10;99.90;;;;;;5093262;28;19924;-85
2021/11/23 14:14:23;;;;;;;;;;;7.20;99.90;;;;;;5099608;28;19924;-84
2021/11/23 14:16:52;;;;;;;;;;;7.20;99.90;;;;;;5099534;28;19913;-85
2021/11/23 14:19:22;;;;;;;;;;;7.20;99.90;;;;;;5093075;28;19994;-84
2021/11/23 14:21:54;;;;;;;;;;;7.20;99.90;;;;;;5095665;28;19924;-84
2021/11/23 14:24:41;;;;;;;;;;;7.20;99.90;;;;;;5093968;28;19946;-86
2021/11/23 14:27:08;;;;;;;;;;;7.20;99.90;;;;;;5092738;28;19924;-84
2021/11/23 14:29:34;;;;;;;;;;;7.20;99.90;;;;;;5092543;28;19924;-85
2021/11/23 14:32:02;;;;;;;;;;;7.20;99.90;;;;;;5091297;28;19931;-85
2021/11/23 14:34:29;;;;;;;;;;;7.20;99.90;;;;;;5091424;28;19924;-85
2021/11/23 14:37:00;;;;;;;;;;;7.20;99.90;;;;;;5090267;28;19935;-85